Weather reports worldwide

Advertisment
Andujar, Spain (8347): temperature & dewpoint: 11.06.2019 20:00:00 - 17.06.2019 20:00:00 (CEST)Andujar, Spain (8347): wind speed & gusts: 11.06.2019 20:00:00 - 17.06.2019 20:00:00 (CEST)Andujar, Spain (8347): wind direction: 11.06.2019 20:00:00 - 17.06.2019 20:00:00 (CEST)Andujar, Spain (8347): precipitation: 11.06.2019 20:00:00 - 17.06.2019 20:00:00 (CEST)
Date & Time tt [°C] td [°C] ff [km/h] ff [kn] fx [km/h] fx [kn] dd rr [mm]
17.06.2019 20:00:00 - - - - - - - -
17.06.2019 19:00:00 31,8 9,4 16 8 34 18 WNW 0,0
17.06.2019 18:00:00 33,0 9,7 13 7 34 18 WNW 0,0
17.06.2019 17:00:00 34,6 11,1 15 8 29 16 W 0,0
17.06.2019 16:00:00 32,7 9,5 5 3 27 14 SW 0,0
17.06.2019 15:00:00 31,9 9,4 6 3 16 8 N 0,0
17.06.2019 14:00:00 30,9 11,3 1 1 12 6 NNW -
17.06.2019 13:00:00 28,4 9,7 1 0 10 6 S 0,0
17.06.2019 12:00:00 27,4 10,6 1 0 10 5 E 0,0
17.06.2019 11:00:00 24,5 10,8 3 1 11 6 ESE 0,0
17.06.2019 10:00:00 22,2 11,3 4 2 9 5 ESE 0,0
17.06.2019 09:00:00 18,2 10,3 1 1 7 4 E 0,0
17.06.2019 08:00:00 14,6 8,8 0 0 5 3 N -
17.06.2019 07:00:00 12,7 6,7 1 1 4 2 WSW 0,0
17.06.2019 06:00:00 13,8 6,9 0 0 4 2 SSE 0,0
17.06.2019 05:00:00 14,9 7,0 1 0 7 4 SE 0,0
17.06.2019 04:00:00 16,1 7,6 2 1 9 5 W 0,0
17.06.2019 03:00:00 18,8 7,3 8 4 15 8 WSW 0,0
17.06.2019 02:00:00 20,7 8,7 8 4 20 11 W -
17.06.2019 01:00:00 23,0 9,1 12 6 23 12 WSW 0,0
17.06.2019 00:00:00 23,9 8,3 14 8 22 12 WSW 0,0
16.06.2019 23:00:00 24,9 8,8 8 4 16 8 WSW 0,0
16.06.2019 22:00:00 25,5 7,2 9 5 21 11 W 0,0
16.06.2019 21:00:00 27,9 8,2 12 7 29 15 W 0,0
16.06.2019 20:00:00 29,9 8,9 14 7 24 13 WNW -
16.06.2019 19:00:00 30,8 9,1 11 6 24 13 WNW 0,0
16.06.2019 18:00:00 30,7 9,6 15 8 26 14 WNW 0,0
16.06.2019 17:00:00 29,1 8,7 16 9 29 16 WNW 0,0
16.06.2019 16:00:00 30,9 9,2 16 9 23 12 W 0,0
16.06.2019 15:00:00 28,4 8,2 10 5 16 9 WNW 0,0
16.06.2019 14:00:00 27,8 8,2 9 5 16 9 WNW -
16.06.2019 13:00:00 28,2 8,0 1 1 9 5 NNW 0,0
16.06.2019 12:00:00 26,6 7,1 3 1 11 6 ENE 0,0
16.06.2019 11:00:00 24,4 8,0 1 1 8 4 ESE 0,0
16.06.2019 10:00:00 19,9 7,6 0 0 7 4 SSW 0,0
16.06.2019 09:00:00 17,0 6,5 1 0 3 2 SE 0,0
16.06.2019 08:00:00 13,3 4,7 1 1 5 3 SE -
16.06.2019 07:00:00 10,9 3,5 3 1 4 2 ESE 0,0
16.06.2019 06:00:00 11,4 3,7 0 0 4 2 S 0,0
16.06.2019 05:00:00 12,7 3,7 1 1 3 2 SE 0,0
16.06.2019 04:00:00 13,9 3,7 1 0 5 3 ESE 0,0
16.06.2019 03:00:00 14,5 3,6 0 0 3 2 N 0,0
16.06.2019 02:00:00 16,4 4,8 1 0 5 3 SSE -
16.06.2019 01:00:00 18,3 4,5 1 0 8 5 S 0,0
16.06.2019 00:00:00 20,7 5,5 2 1 4 2 NW 0,0
15.06.2019 23:00:00 20,8 5,2 1 1 10 6 W 0,0
15.06.2019 22:00:00 24,2 5,1 7 4 10 5 WSW 0,0
15.06.2019 21:00:00 27,6 5,8 6 4 14 8 WSW 0,0
15.06.2019 20:00:00 29,2 6,6 6 3 18 10 WSW -
15.06.2019 19:00:00 29,8 7,1 9 5 21 12 W 0,0
15.06.2019 18:00:00 30,4 7,6 8 5 23 12 WSW 0,0
15.06.2019 17:00:00 30,5 7,7 8 4 19 10 WSW 0,0
15.06.2019 16:00:00 28,5 6,0 6 4 21 12 SW 0,0
15.06.2019 15:00:00 28,0 6,7 4 2 18 10 S 0,0
15.06.2019 14:00:00 26,4 7,4 7 4 24 13 S -
15.06.2019 13:00:00 23,0 6,3 4 2 13 7 N 0,0
15.06.2019 12:00:00 23,4 7,9 4 2 11 6 S 0,0
15.06.2019 11:00:00 21,4 9,6 3 2 14 7 ENE 0,0
15.06.2019 10:00:00 18,5 9,8 3 2 9 5 ESE 0,0
15.06.2019 09:00:00 15,3 9,4 2 1 7 4 NNW 0,0
15.06.2019 08:00:00 12,3 8,6 0 0 0 0 N -
15.06.2019 07:00:00 11,0 7,1 0 0 9 5 SE 0,0
15.06.2019 06:00:00 11,5 7,0 4 2 7 4 W 0,0
15.06.2019 05:00:00 13,2 6,8 4 2 11 6 WSW 0,0
15.06.2019 04:00:00 14,3 6,9 7 4 11 6 WSW 0,0
15.06.2019 03:00:00 14,8 6,6 7 4 16 9 W 0,0
15.06.2019 02:00:00 16,9 7,0 9 5 23 12 W -
15.06.2019 01:00:00 17,8 7,0 12 6 26 14 WSW 0,0
15.06.2019 00:00:00 18,9 7,4 10 6 26 14 W 0,0
14.06.2019 23:00:00 19,9 6,6 16 8 38 20 W 0,0
14.06.2019 22:00:00 21,7 6,4 19 10 32 17 WSW 0,0
14.06.2019 21:00:00 23,1 6,0 18 10 33 18 WSW 0,0
14.06.2019 20:00:00 24,3 6,1 19 10 34 19 WSW -
14.06.2019 19:00:00 24,8 6,1 20 11 39 21 WSW 0,0
14.06.2019 18:00:00 26,2 7,3 20 11 41 22 W 0,0
14.06.2019 17:00:00 25,9 7,0 24 13 41 22 W 0,0
14.06.2019 16:00:00 25,3 7,4 23 13 46 25 W 0,0
14.06.2019 15:00:00 25,9 8,9 21 11 42 23 W 0,0
14.06.2019 14:00:00 25,2 10,3 24 13 43 23 W -
14.06.2019 13:00:00 23,7 10,7 21 12 39 21 W 0,0
14.06.2019 12:00:00 22,3 11,1 22 12 37 20 W 0,0
14.06.2019 11:00:00 20,9 9,8 16 9 33 18 W 0,0
14.06.2019 10:00:00 20,1 9,7 16 9 34 18 W 0,0
14.06.2019 09:00:00 18,4 9,5 18 10 30 16 W 0,0
14.06.2019 08:00:00 18,0 8,6 15 8 26 14 W -
14.06.2019 07:00:00 17,7 7,2 14 8 22 12 W 0,0
14.06.2019 06:00:00 18,5 7,0 9 5 20 11 W 0,0
14.06.2019 05:00:00 18,5 5,7 10 5 23 12 W 0,0
14.06.2019 04:00:00 20,2 6,2 15 8 29 16 W 0,0
14.06.2019 03:00:00 21,1 7,0 16 9 32 17 W 0,0
14.06.2019 02:00:00 21,7 8,6 16 9 34 19 WSW -
14.06.2019 01:00:00 23,0 7,1 23 12 36 19 WSW 0,0
14.06.2019 00:00:00 24,2 7,4 16 9 26 14 W 0,0
13.06.2019 23:00:00 24,6 9,4 10 5 23 12 W 0,0
13.06.2019 22:00:00 25,3 9,6 13 7 26 14 W 0,0
13.06.2019 21:00:00 26,7 10,0 19 10 31 17 W 0,0
13.06.2019 20:00:00 28,3 10,9 13 7 27 14 W -
13.06.2019 19:00:00 29,5 11,5 16 9 31 17 W 0,0
13.06.2019 18:00:00 28,7 11,3 17 9 31 17 WNW 0,0
13.06.2019 17:00:00 29,7 12,2 11 6 33 18 W 0,0
13.06.2019 16:00:00 30,0 12,4 3 1 16 9 WNW 0,0
13.06.2019 15:00:00 28,3 12,2 3 1 19 10 WSW 0,0
13.06.2019 14:00:00 27,6 12,4 3 2 15 8 N -
13.06.2019 13:00:00 24,9 11,8 3 1 14 8 ESE 0,0
13.06.2019 12:00:00 25,7 12,9 4 2 17 9 SSE 0,0
13.06.2019 11:00:00 23,2 13,9 3 2 10 5 N 0,0
13.06.2019 10:00:00 21,0 13,9 1 0 9 5 NNW 0,0
13.06.2019 09:00:00 19,0 13,4 1 0 6 3 NNW 0,0
13.06.2019 08:00:00 17,8 12,9 5 3 10 5 SW -
13.06.2019 07:00:00 15,7 11,5 1 0 9 5 SSW 0,0
13.06.2019 06:00:00 16,8 11,9 7 4 14 8 WNW 0,0
13.06.2019 05:00:00 17,9 11,0 9 5 22 12 W 0,0
13.06.2019 04:00:00 18,6 10,4 10 5 19 10 WNW 0,0
13.06.2019 03:00:00 20,0 9,9 9 5 17 9 W 0,0
13.06.2019 02:00:00 19,9 8,0 7 4 25 14 WNW -
13.06.2019 01:00:00 21,8 6,5 11 6 19 10 W 0,0
13.06.2019 00:00:00 20,1 4,6 4 2 16 8 NW 0,0
12.06.2019 23:00:00 24,3 6,1 10 5 16 8 SW 0,0
12.06.2019 22:00:00 24,7 6,5 9 5 19 11 W 0,0
12.06.2019 21:00:00 27,1 7,0 15 8 27 15 WNW 0,0
12.06.2019 20:00:00 28,4 8,2 15 8 29 16 WNW -
12.06.2019 19:00:00 28,5 8,2 9 5 26 14 WNW 0,0
12.06.2019 18:00:00 30,0 9,0 2 1 32 18 WSW 0,0
12.06.2019 17:00:00 28,9 9,1 12 7 29 16 W 0,0
12.06.2019 16:00:00 29,3 9,4 8 4 29 15 WNW 0,0
12.06.2019 15:00:00 29,2 8,8 11 6 29 16 W 0,0
12.06.2019 14:00:00 27,7 9,1 8 5 26 14 WSW -
12.06.2019 13:00:00 26,7 8,7 13 7 25 13 WNW 0,0
12.06.2019 12:00:00 25,2 7,4 9 5 21 11 W 0,0
12.06.2019 11:00:00 24,6 8,1 2 1 10 5 WNW 0,0
12.06.2019 10:00:00 22,6 8,0 4 2 13 7 E 0,0
12.06.2019 09:00:00 18,1 6,3 1 0 4 2 SE 0,0
12.06.2019 08:00:00 13,4 3,5 1 0 5 3 E -
12.06.2019 07:00:00 11,7 1,4 0 0 5 3 S 0,0
12.06.2019 06:00:00 12,1 1,2 3 1 5 3 ESE 0,0
12.06.2019 05:00:00 13,1 1,8 2 1 5 3 W 0,0
12.06.2019 04:00:00 14,2 1,8 1 1 6 3 E 0,0
12.06.2019 03:00:00 15,4 1,9 2 1 5 3 ESE 0,0
12.06.2019 02:00:00 16,6 2,3 3 1 7 4 E -
12.06.2019 01:00:00 18,1 1,6 2 1 12 6 SSE 0,0
12.06.2019 00:00:00 21,3 2,6 7 4 15 8 E 0,0
11.06.2019 23:00:00 22,7 3,3 6 3 26 14 E 0,0
11.06.2019 22:00:00 24,1 3,4 6 3 22 12 ENE 0,0
11.06.2019 21:00:00 26,6 4,4 7 4 16 9 NE 0,0
11.06.2019 20:00:00 28,5 4,7 13 7 22 12 NW -

tt = temperature
td = dewpoint
ff = wind speed
fx = gusts
dd = wind direction
rr = precipitation

Next stations